sensor_id;sensor_type;location;lat;lon;timestamp;temperature;humidity
16964;DHT22;8598;50.508;10.436;2023-07-22T00:02:18;12.80;99.90
16964;DHT22;8598;50.508;10.436;2023-07-22T00:04:46;12.70;99.90
16964;DHT22;8598;50.508;10.436;2023-07-22T00:07:12;12.80;99.90
16964;DHT22;8598;50.508;10.436;2023-07-22T00:09:39;12.80;99.90
16964;DHT22;8598;50.508;10.436;2023-07-22T00:12:07;12.70;99.90
16964;DHT22;8598;50.508;10.436;2023-07-22T00:14:39;12.70;99.90
16964;DHT22;8598;50.508;10.436;2023-07-22T00:17:06;12.70;99.90
16964;DHT22;8598;50.508;10.436;2023-07-22T00:19:33;12.60;99.90
16964;DHT22;8598;50.508;10.436;2023-07-22T00:22:00;12.40;99.90
16964;DHT22;8598;50.508;10.436;2023-07-22T00:24:27;12.50;99.90
16964;DHT22;8598;50.508;10.436;2023-07-22T00:26:54;12.40;99.90
16964;DHT22;8598;50.508;10.436;2023-07-22T00:29:21;12.40;99.90
16964;DHT22;8598;50.508;10.436;2023-07-22T00:31:49;12.30;99.90
16964;DHT22;8598;50.508;10.436;2023-07-22T00:34:16;12.20;99.90
16964;DHT22;8598;50.508;10.436;2023-07-22T00:36:42;12.20;99.90
16964;DHT22;8598;50.508;10.436;2023-07-22T00:39:09;12.00;99.90
16964;DHT22;8598;50.508;10.436;2023-07-22T00:41:39;11.90;99.90
16964;DHT22;8598;50.508;10.436;2023-07-22T00:44:06;11.80;99.90
16964;DHT22;8598;50.508;10.436;2023-07-22T00:46:32;11.60;99.90
16964;DHT22;8598;50.508;10.436;2023-07-22T00:49:01;11.60;99.90
16964;DHT22;8598;50.508;10.436;2023-07-22T00:51:28;11.50;99.90
16964;DHT22;8598;50.508;10.436;2023-07-22T00:53:54;11.40;99.90
16964;DHT22;8598;50.508;10.436;2023-07-22T00:56:21;11.30;99.90
16964;DHT22;8598;50.508;10.436;2023-07-22T00:58:48;11.30;99.90
16964;DHT22;8598;50.508;10.436;2023-07-22T01:01:15;11.30;99.90
16964;DHT22;8598;50.508;10.436;2023-07-22T01:03:42;11.30;99.90
16964;DHT22;8598;50.508;10.436;2023-07-22T01:06:10;11.20;99.90
16964;DHT22;8598;50.508;10.436;2023-07-22T01:08:38;11.10;99.90
16964;DHT22;8598;50.508;10.436;2023-07-22T01:11:05;10.90;99.90
16964;DHT22;8598;50.508;10.436;2023-07-22T01:13:32;10.90;99.90
16964;DHT22;8598;50.508;10.436;2023-07-22T01:15:59;10.90;99.90
16964;DHT22;8598;50.508;10.436;2023-07-22T01:18:26;10.90;99.90
16964;DHT22;8598;50.508;10.436;2023-07-22T01:20:52;10.80;99.90
16964;DHT22;8598;50.508;10.436;2023-07-22T01:23:21;10.60;99.90
16964;DHT22;8598;50.508;10.436;2023-07-22T01:25:47;10.60;99.90
16964;DHT22;8598;50.508;10.436;2023-07-22T01:28:14;10.60;99.90
16964;DHT22;8598;50.508;10.436;2023-07-22T01:30:41;10.50;99.90
16964;DHT22;8598;50.508;10.436;2023-07-22T01:33:08;10.60;99.90
16964;DHT22;8598;50.508;10.436;2023-07-22T01:35:34;10.60;99.90
16964;DHT22;8598;50.508;10.436;2023-07-22T01:38:02;10.60;99.90
16964;DHT22;8598;50.508;10.436;2023-07-22T01:40:30;10.70;99.90
16964;DHT22;8598;50.508;10.436;2023-07-22T01:42:56;10.70;99.90
16964;DHT22;8598;50.508;10.436;2023-07-22T01:45:23;10.70;99.90
16964;DHT22;8598;50.508;10.436;2023-07-22T01:47:51;10.70;99.90
16964;DHT22;8598;50.508;10.436;2023-07-22T01:50:17;10.60;99.90
16964;DHT22;8598;50.508;10.436;2023-07-22T01:52:44;10.60;99.90
16964;DHT22;8598;50.508;10.436;2023-07-22T01:55:11;10.50;99.90
16964;DHT22;8598;50.508;10.436;2023-07-22T01:57:40;10.50;99.90
16964;DHT22;8598;50.508;10.436;2023-07-22T02:00:07;10.50;99.90
16964;DHT22;8598;50.508;10.436;2023-07-22T02:02:36;10.50;99.90
16964;DHT22;8598;50.508;10.436;2023-07-22T02:05:03;10.60;99.90
16964;DHT22;8598;50.508;10.436;2023-07-22T02:07:30;10.60;99.90
16964;DHT22;8598;50.508;10.436;2023-07-22T02:09:57;10.50;99.90
16964;DHT22;8598;50.508;10.436;2023-07-22T02:12:23;10.50;99.90
16964;DHT22;8598;50.508;10.436;2023-07-22T02:14:52;10.40;99.90
16964;DHT22;8598;50.508;10.436;2023-07-22T02:17:18;10.30;99.90
16964;DHT22;8598;50.508;10.436;2023-07-22T02:19:46;10.30;99.90
16964;DHT22;8598;50.508;10.436;2023-07-22T02:22:12;10.20;99.90
16964;DHT22;8598;50.508;10.436;2023-07-22T02:24:39;10.20;99.90
16964;DHT22;8598;50.508;10.436;2023-07-22T02:27:06;10.10;99.90
16964;DHT22;8598;50.508;10.436;2023-07-22T02:29:34;10.10;99.90
16964;DHT22;8598;50.508;10.436;2023-07-22T02:32:02;10.10;99.90
16964;DHT22;8598;50.508;10.436;2023-07-22T02:34:29;10.00;99.90
16964;DHT22;8598;50.508;10.436;2023-07-22T02:36:56;10.00;99.90
16964;DHT22;8598;50.508;10.436;2023-07-22T02:39:23;10.00;99.90
16964;DHT22;8598;50.508;10.436;2023-07-22T02:41:50;9.90;99.90
16964;DHT22;8598;50.508;10.436;2023-07-22T02:44:16;9.90;99.90
16964;DHT22;8598;50.508;10.436;2023-07-22T02:46:43;9.90;99.90
16964;DHT22;8598;50.508;10.436;2023-07-22T02:49:11;9.70;99.90
16964;DHT22;8598;50.508;10.436;2023-07-22T02:51:38;9.60;99.90
16964;DHT22;8598;50.508;10.436;2023-07-22T02:54:04;9.50;99.90
16964;DHT22;8598;50.508;10.436;2023-07-22T02:56:32;9.40;99.90
16964;DHT22;8598;50.508;10.436;2023-07-22T02:58:58;9.30;99.90
16964;DHT22;8598;50.508;10.436;2023-07-22T03:01:25;9.20;99.90
16964;DHT22;8598;50.508;10.436;2023-07-22T03:03:52;9.20;99.90
16964;DHT22;8598;50.508;10.436;2023-07-22T03:06:20;9.20;99.90
16964;DHT22;8598;50.508;10.436;2023-07-22T03:08:47;9.20;99.90
16964;DHT22;8598;50.508;10.436;2023-07-22T03:11:14;9.50;99.90
16964;DHT22;8598;50.508;10.436;2023-07-22T03:13:41;9.40;99.90
16964;DHT22;8598;50.508;10.436;2023-07-22T03:16:08;9.30;99.90
16964;DHT22;8598;50.508;10.436;2023-07-22T03:18:35;9.20;99.90
16964;DHT22;8598;50.508;10.436;2023-07-22T03:21:01;9.10;99.90
16964;DHT22;8598;50.508;10.436;2023-07-22T03:23:29;9.10;99.90
16964;DHT22;8598;50.508;10.436;2023-07-22T03:25:56;9.20;99.90
16964;DHT22;8598;50.508;10.436;2023-07-22T03:28:23;9.30;99.90
16964;DHT22;8598;50.508;10.436;2023-07-22T03:30:51;9.10;99.90
16964;DHT22;8598;50.508;10.436;2023-07-22T03:33:18;9.00;99.90
16964;DHT22;8598;50.508;10.436;2023-07-22T03:35:45;9.00;99.90
16964;DHT22;8598;50.508;10.436;2023-07-22T03:38:12;9.00;99.90
16964;DHT22;8598;50.508;10.436;2023-07-22T03:40:40;9.20;99.90
16964;DHT22;8598;50.508;10.436;2023-07-22T03:43:07;9.20;99.90
16964;DHT22;8598;50.508;10.436;2023-07-22T03:45:34;9.10;99.90
16964;DHT22;8598;50.508;10.436;2023-07-22T03:48:01;9.10;99.90
16964;DHT22;8598;50.508;10.436;2023-07-22T03:50:28;9.20;99.90
16964;DHT22;8598;50.508;10.436;2023-07-22T03:52:55;9.20;99.90
16964;DHT22;8598;50.508;10.436;2023-07-22T03:55:21;9.20;99.90
16964;DHT22;8598;50.508;10.436;2023-07-22T03:57:49;9.20;99.90
16964;DHT22;8598;50.508;10.436;2023-07-22T04:00:16;9.30;99.90
16964;DHT22;8598;50.508;10.436;2023-07-22T04:02:43;9.20;99.90
16964;DHT22;8598;50.508;10.436;2023-07-22T04:05:11;9.30;99.90
16964;DHT22;8598;50.508;10.436;2023-07-22T04:07:38;9.40;99.90
16964;DHT22;8598;50.508;10.436;2023-07-22T04:10:06;9.50;99.90
16964;DHT22;8598;50.508;10.436;2023-07-22T04:12:33;9.60;99.90
16964;DHT22;8598;50.508;10.436;2023-07-22T04:15:01;9.60;99.90
16964;DHT22;8598;50.508;10.436;2023-07-22T04:17:28;9.60;99.90
16964;DHT22;8598;50.508;10.436;2023-07-22T04:19:55;9.80;99.90
16964;DHT22;8598;50.508;10.436;2023-07-22T04:22:22;9.80;99.90
16964;DHT22;8598;50.508;10.436;2023-07-22T04:24:48;9.80;99.90
16964;DHT22;8598;50.508;10.436;2023-07-22T04:27:15;9.70;99.90
16964;DHT22;8598;50.508;10.436;2023-07-22T04:29:42;9.70;99.90
16964;DHT22;8598;50.508;10.436;2023-07-22T04:32:10;9.70;99.90
16964;DHT22;8598;50.508;10.436;2023-07-22T04:34:37;9.70;99.90
16964;DHT22;8598;50.508;10.436;2023-07-22T04:37:05;9.80;99.90
16964;DHT22;8598;50.508;10.436;2023-07-22T04:39:32;9.70;99.90
16964;DHT22;8598;50.508;10.436;2023-07-22T04:41:58;9.90;99.90
16964;DHT22;8598;50.508;10.436;2023-07-22T04:44:25;10.00;99.90
16964;DHT22;8598;50.508;10.436;2023-07-22T04:46:52;10.00;99.90
16964;DHT22;8598;50.508;10.436;2023-07-22T04:49:21;10.10;99.90
16964;DHT22;8598;50.508;10.436;2023-07-22T04:51:47;10.20;99.90
16964;DHT22;8598;50.508;10.436;2023-07-22T04:54:15;10.30;99.90
16964;DHT22;8598;50.508;10.436;2023-07-22T04:56:42;10.40;99.90
16964;DHT22;8598;50.508;10.436;2023-07-22T04:59:09;10.40;99.90
16964;DHT22;8598;50.508;10.436;2023-07-22T05:01:35;10.50;99.90
16964;DHT22;8598;50.508;10.436;2023-07-22T05:04:02;10.50;99.90
16964;DHT22;8598;50.508;10.436;2023-07-22T05:06:31;10.60;99.90
16964;DHT22;8598;50.508;10.436;2023-07-22T05:08:58;10.80;99.90
16964;DHT22;8598;50.508;10.436;2023-07-22T05:11:25;11.00;99.90
16964;DHT22;8598;50.508;10.436;2023-07-22T05:13:51;11.10;99.90
16964;DHT22;8598;50.508;10.436;2023-07-22T05:16:18;11.10;99.90
16964;DHT22;8598;50.508;10.436;2023-07-22T05:18:46;11.30;99.90
16964;DHT22;8598;50.508;10.436;2023-07-22T05:21:13;11.40;99.90
16964;DHT22;8598;50.508;10.436;2023-07-22T05:23:41;11.60;99.90
16964;DHT22;8598;50.508;10.436;2023-07-22T05:26:08;11.80;99.90
16964;DHT22;8598;50.508;10.436;2023-07-22T05:28:34;11.80;99.90
16964;DHT22;8598;50.508;10.436;2023-07-22T05:31:01;11.80;99.90
16964;DHT22;8598;50.508;10.436;2023-07-22T05:33:28;12.10;99.90
16964;DHT22;8598;50.508;10.436;2023-07-22T05:35:54;12.20;99.90
16964;DHT22;8598;50.508;10.436;2023-07-22T05:38:21;12.20;99.90
16964;DHT22;8598;50.508;10.436;2023-07-22T05:40:49;12.50;99.90
16964;DHT22;8598;50.508;10.436;2023-07-22T05:43:17;12.90;99.90
16964;DHT22;8598;50.508;10.436;2023-07-22T05:45:44;13.10;99.90
16964;DHT22;8598;50.508;10.436;2023-07-22T05:48:11;13.10;99.90
16964;DHT22;8598;50.508;10.436;2023-07-22T05:50:37;13.40;99.90
16964;DHT22;8598;50.508;10.436;2023-07-22T05:53:04;13.80;99.90
16964;DHT22;8598;50.508;10.436;2023-07-22T05:55:31;14.30;99.90
16964;DHT22;8598;50.508;10.436;2023-07-22T05:57:59;14.50;99.90
16964;DHT22;8598;50.508;10.436;2023-07-22T06:00:31;14.70;99.90
16964;DHT22;8598;50.508;10.436;2023-07-22T06:02:58;15.40;99.90
16964;DHT22;8598;50.508;10.436;2023-07-22T06:05:24;15.80;99.90
16964;DHT22;8598;50.508;10.436;2023-07-22T06:07:51;16.50;99.90
16964;DHT22;8598;50.508;10.436;2023-07-22T06:10:20;16.80;99.90
16964;DHT22;8598;50.508;10.436;2023-07-22T06:12:46;17.30;99.90
16964;DHT22;8598;50.508;10.436;2023-07-22T06:15:14;17.80;99.90
16964;DHT22;8598;50.508;10.436;2023-07-22T06:17:41;18.20;99.90
16964;DHT22;8598;50.508;10.436;2023-07-22T06:20:09;18.50;99.90
16964;DHT22;8598;50.508;10.436;2023-07-22T06:22:36;18.80;99.90
16964;DHT22;8598;50.508;10.436;2023-07-22T06:25:03;19.20;99.90
16964;DHT22;8598;50.508;10.436;2023-07-22T06:27:30;19.60;99.90
16964;DHT22;8598;50.508;10.436;2023-07-22T06:29:56;20.20;99.90
16964;DHT22;8598;50.508;10.436;2023-07-22T06:32:24;20.50;99.90
16964;DHT22;8598;50.508;10.436;2023-07-22T06:34:51;20.40;99.90
16964;DHT22;8598;50.508;10.436;2023-07-22T06:37:18;20.40;99.90
16964;DHT22;8598;50.508;10.436;2023-07-22T06:39:44;20.60;99.90
16964;DHT22;8598;50.508;10.436;2023-07-22T06:42:11;20.90;99.90
16964;DHT22;8598;50.508;10.436;2023-07-22T06:44:38;20.90;99.90
16964;DHT22;8598;50.508;10.436;2023-07-22T06:47:05;21.20;99.90
16964;DHT22;8598;50.508;10.436;2023-07-22T06:49:33;21.60;99.90
16964;DHT22;8598;50.508;10.436;2023-07-22T06:52:00;21.20;99.90
16964;DHT22;8598;50.508;10.436;2023-07-22T06:54:28;21.40;99.90
16964;DHT22;8598;50.508;10.436;2023-07-22T06:56:55;22.30;99.90
16964;DHT22;8598;50.508;10.436;2023-07-22T06:59:21;22.80;99.90
16964;DHT22;8598;50.508;10.436;2023-07-22T07:01:48;22.90;99.90
16964;DHT22;8598;50.508;10.436;2023-07-22T07:04:15;23.20;99.90
16964;DHT22;8598;50.508;10.436;2023-07-22T07:06:43;22.50;99.90
16964;DHT22;8598;50.508;10.436;2023-07-22T07:09:11;21.40;99.90
16964;DHT22;8598;50.508;10.436;2023-07-22T07:11:38;22.00;99.90
16964;DHT22;8598;50.508;10.436;2023-07-22T07:14:04;22.50;99.90
16964;DHT22;8598;50.508;10.436;2023-07-22T07:16:31;22.50;99.90
16964;DHT22;8598;50.508;10.436;2023-07-22T07:19:00;22.40;99.90
16964;DHT22;8598;50.508;10.436;2023-07-22T07:21:27;22.30;99.90
16964;DHT22;8598;50.508;10.436;2023-07-22T07:23:55;21.90;99.90
16964;DHT22;8598;50.508;10.436;2023-07-22T07:26:22;21.90;99.90
16964;DHT22;8598;50.508;10.436;2023-07-22T07:28:49;22.20;99.90
16964;DHT22;8598;50.508;10.436;2023-07-22T07:31:17;23.00;99.90
16964;DHT22;8598;50.508;10.436;2023-07-22T07:33:43;22.60;99.90
16964;DHT22;8598;50.508;10.436;2023-07-22T07:36:10;23.00;99.90
16964;DHT22;8598;50.508;10.436;2023-07-22T07:38:37;23.00;99.90
16964;DHT22;8598;50.508;10.436;2023-07-22T07:41:06;22.40;99.90
16964;DHT22;8598;50.508;10.436;2023-07-22T07:43:34;22.80;99.90
16964;DHT22;8598;50.508;10.436;2023-07-22T07:46:14;22.80;99.90
16964;DHT22;8598;50.508;10.436;2023-07-22T07:48:43;22.70;99.90
16964;DHT22;8598;50.508;10.436;2023-07-22T07:51:11;22.70;99.90
16964;DHT22;8598;50.508;10.436;2023-07-22T07:53:38;23.10;99.90
16964;DHT22;8598;50.508;10.436;2023-07-22T07:56:06;23.20;99.90
16964;DHT22;8598;50.508;10.436;2023-07-22T07:58:33;23.40;99.90
16964;DHT22;8598;50.508;10.436;2023-07-22T08:01:00;23.80;99.90
16964;DHT22;8598;50.508;10.436;2023-07-22T08:03:26;23.70;99.90
16964;DHT22;8598;50.508;10.436;2023-07-22T08:05:53;23.80;99.90
16964;DHT22;8598;50.508;10.436;2023-07-22T08:08:20;23.40;99.90
16964;DHT22;8598;50.508;10.436;2023-07-22T08:10:46;23.70;99.90
16964;DHT22;8598;50.508;10.436;2023-07-22T08:13:15;24.00;99.90
16964;DHT22;8598;50.508;10.436;2023-07-22T08:15:41;23.90;99.90
16964;DHT22;8598;50.508;10.436;2023-07-22T08:18:08;24.40;99.90
16964;DHT22;8598;50.508;10.436;2023-07-22T08:20:35;24.60;99.90
16964;DHT22;8598;50.508;10.436;2023-07-22T08:23:01;24.30;99.90
16964;DHT22;8598;50.508;10.436;2023-07-22T08:25:28;24.30;99.90
16964;DHT22;8598;50.508;10.436;2023-07-22T08:27:55;24.00;99.90
16964;DHT22;8598;50.508;10.436;2023-07-22T08:30:23;24.10;99.90
16964;DHT22;8598;50.508;10.436;2023-07-22T08:32:49;23.50;99.90
16964;DHT22;8598;50.508;10.436;2023-07-22T08:35:16;23.10;99.90
16964;DHT22;8598;50.508;10.436;2023-07-22T08:37:43;22.90;99.90
16964;DHT22;8598;50.508;10.436;2023-07-22T08:40:12;22.90;99.90
16964;DHT22;8598;50.508;10.436;2023-07-22T08:42:40;23.10;99.90
16964;DHT22;8598;50.508;10.436;2023-07-22T08:45:09;23.20;99.90
16964;DHT22;8598;50.508;10.436;2023-07-22T08:47:42;24.00;99.90
16964;DHT22;8598;50.508;10.436;2023-07-22T08:50:11;24.00;99.90
16964;DHT22;8598;50.508;10.436;2023-07-22T08:52:41;23.90;99.90
16964;DHT22;8598;50.508;10.436;2023-07-22T08:55:08;22.70;99.90
16964;DHT22;8598;50.508;10.436;2023-07-22T08:57:36;22.40;99.90
16964;DHT22;8598;50.508;10.436;2023-07-22T09:00:04;22.60;99.90
16964;DHT22;8598;50.508;10.436;2023-07-22T09:02:33;22.90;99.90
16964;DHT22;8598;50.508;10.436;2023-07-22T09:05:02;23.10;99.90
16964;DHT22;8598;50.508;10.436;2023-07-22T09:07:29;23.70;99.90
16964;DHT22;8598;50.508;10.436;2023-07-22T09:09:57;23.40;99.90
16964;DHT22;8598;50.508;10.436;2023-07-22T09:12:24;23.00;99.90
16964;DHT22;8598;50.508;10.436;2023-07-22T09:14:52;21.50;99.90
16964;DHT22;8598;50.508;10.436;2023-07-22T09:17:19;21.00;99.90
16964;DHT22;8598;50.508;10.436;2023-07-22T09:19:46;20.60;99.90
16964;DHT22;8598;50.508;10.436;2023-07-22T09:22:24;20.90;99.90
16964;DHT22;8598;50.508;10.436;2023-07-22T09:24:51;21.20;99.90
16964;DHT22;8598;50.508;10.436;2023-07-22T09:27:32;21.40;99.90
16964;DHT22;8598;50.508;10.436;2023-07-22T09:29:59;21.70;99.90
16964;DHT22;8598;50.508;10.436;2023-07-22T09:32:35;21.50;99.90
16964;DHT22;8598;50.508;10.436;2023-07-22T09:35:02;21.50;99.90
16964;DHT22;8598;50.508;10.436;2023-07-22T09:37:37;21.60;99.90
16964;DHT22;8598;50.508;10.436;2023-07-22T09:40:13;21.10;99.90
16964;DHT22;8598;50.508;10.436;2023-07-22T09:42:44;21.20;99.90
16964;DHT22;8598;50.508;10.436;2023-07-22T09:45:10;21.50;99.90
16964;DHT22;8598;50.508;10.436;2023-07-22T09:47:40;21.90;99.90
16964;DHT22;8598;50.508;10.436;2023-07-22T09:50:10;21.80;99.90
16964;DHT22;8598;50.508;10.436;2023-07-22T09:52:44;22.20;99.90
16964;DHT22;8598;50.508;10.436;2023-07-22T09:55:10;22.20;99.90
16964;DHT22;8598;50.508;10.436;2023-07-22T09:57:42;22.70;99.90
16964;DHT22;8598;50.508;10.436;2023-07-22T10:00:11;23.20;99.90
16964;DHT22;8598;50.508;10.436;2023-07-22T10:02:40;23.20;99.90
16964;DHT22;8598;50.508;10.436;2023-07-22T10:05:12;23.40;99.90
16964;DHT22;8598;50.508;10.436;2023-07-22T10:07:44;23.80;99.90
16964;DHT22;8598;50.508;10.436;2023-07-22T10:10:12;23.40;99.90
16964;DHT22;8598;50.508;10.436;2023-07-22T10:12:40;23.00;99.90
16964;DHT22;8598;50.508;10.436;2023-07-22T10:15:08;22.60;99.90
16964;DHT22;8598;50.508;10.436;2023-07-22T10:17:36;22.30;99.90
16964;DHT22;8598;50.508;10.436;2023-07-22T10:20:03;22.20;99.90
16964;DHT22;8598;50.508;10.436;2023-07-22T10:22:34;22.20;99.90
16964;DHT22;8598;50.508;10.436;2023-07-22T10:25:04;22.00;99.90
16964;DHT22;8598;50.508;10.436;2023-07-22T10:27:31;22.10;99.90
16964;DHT22;8598;50.508;10.436;2023-07-22T10:29:59;22.40;99.90
16964;DHT22;8598;50.508;10.436;2023-07-22T10:32:31;22.20;99.90
16964;DHT22;8598;50.508;10.436;2023-07-22T10:34:58;22.50;99.90
16964;DHT22;8598;50.508;10.436;2023-07-22T10:37:29;23.00;99.90
16964;DHT22;8598;50.508;10.436;2023-07-22T10:42:52;23.00;99.90
16964;DHT22;8598;50.508;10.436;2023-07-22T10:45:27;23.30;99.90
16964;DHT22;8598;50.508;10.436;2023-07-22T10:48:02;23.10;99.90
16964;DHT22;8598;50.508;10.436;2023-07-22T10:50:40;22.80;99.90
16964;DHT22;8598;50.508;10.436;2023-07-22T10:53:10;22.90;99.90
16964;DHT22;8598;50.508;10.436;2023-07-22T10:56:05;22.80;99.90
16964;DHT22;8598;50.508;10.436;2023-07-22T10:58:35;22.80;99.90
16964;DHT22;8598;50.508;10.436;2023-07-22T11:01:22;22.60;99.90
16964;DHT22;8598;50.508;10.436;2023-07-22T11:04:09;22.50;99.90
16964;DHT22;8598;50.508;10.436;2023-07-22T11:06:38;22.30;99.90
16964;DHT22;8598;50.508;10.436;2023-07-22T11:09:05;22.20;99.90
16964;DHT22;8598;50.508;10.436;2023-07-22T11:11:36;21.90;99.90
16964;DHT22;8598;50.508;10.436;2023-07-22T11:14:15;21.90;99.90
16964;DHT22;8598;50.508;10.436;2023-07-22T11:16:42;21.70;99.90
16964;DHT22;8598;50.508;10.436;2023-07-22T11:19:09;21.20;99.90
16964;DHT22;8598;50.508;10.436;2023-07-22T11:21:36;21.20;99.90
16964;DHT22;8598;50.508;10.436;2023-07-22T11:24:03;21.00;99.90
16964;DHT22;8598;50.508;10.436;2023-07-22T11:26:30;21.00;99.90
16964;DHT22;8598;50.508;10.436;2023-07-22T11:28:57;21.00;99.90
16964;DHT22;8598;50.508;10.436;2023-07-22T11:31:31;21.00;99.90
16964;DHT22;8598;50.508;10.436;2023-07-22T11:33:58;21.20;99.90
16964;DHT22;8598;50.508;10.436;2023-07-22T11:36:25;21.90;99.90
16964;DHT22;8598;50.508;10.436;2023-07-22T11:38:52;22.50;99.90
16964;DHT22;8598;50.508;10.436;2023-07-22T11:41:20;22.30;99.90
16964;DHT22;8598;50.508;10.436;2023-07-22T11:43:47;22.00;99.90
16964;DHT22;8598;50.508;10.436;2023-07-22T11:46:14;21.80;99.90
16964;DHT22;8598;50.508;10.436;2023-07-22T11:48:50;21.70;99.90
16964;DHT22;8598;50.508;10.436;2023-07-22T11:51:20;22.00;99.90
16964;DHT22;8598;50.508;10.436;2023-07-22T11:53:47;22.50;99.90
16964;DHT22;8598;50.508;10.436;2023-07-22T11:56:18;22.30;99.90
16964;DHT22;8598;50.508;10.436;2023-07-22T11:58:49;22.70;99.90
16964;DHT22;8598;50.508;10.436;2023-07-22T12:01:16;23.30;99.90
16964;DHT22;8598;50.508;10.436;2023-07-22T12:03:42;23.50;99.90
16964;DHT22;8598;50.508;10.436;2023-07-22T12:06:11;23.50;99.90
16964;DHT22;8598;50.508;10.436;2023-07-22T12:08:43;23.50;99.90
16964;DHT22;8598;50.508;10.436;2023-07-22T12:11:16;23.50;99.90
16964;DHT22;8598;50.508;10.436;2023-07-22T12:13:43;23.40;99.90
16964;DHT22;8598;50.508;10.436;2023-07-22T12:16:12;22.90;99.90
16964;DHT22;8598;50.508;10.436;2023-07-22T12:18:43;22.70;99.90
16964;DHT22;8598;50.508;10.436;2023-07-22T12:21:12;22.70;99.90
16964;DHT22;8598;50.508;10.436;2023-07-22T12:23:38;23.10;99.90
16964;DHT22;8598;50.508;10.436;2023-07-22T12:26:06;23.70;99.90
16964;DHT22;8598;50.508;10.436;2023-07-22T12:28:33;24.00;99.90
16964;DHT22;8598;50.508;10.436;2023-07-22T12:31:00;24.30;99.90
16964;DHT22;8598;50.508;10.436;2023-07-22T12:33:27;24.50;99.90
16964;DHT22;8598;50.508;10.436;2023-07-22T12:35:54;24.60;99.90
16964;DHT22;8598;50.508;10.436;2023-07-22T12:38:22;24.20;99.90
16964;DHT22;8598;50.508;10.436;2023-07-22T12:40:49;23.60;99.90
16964;DHT22;8598;50.508;10.436;2023-07-22T12:43:15;23.20;99.90
16964;DHT22;8598;50.508;10.436;2023-07-22T12:45:42;23.20;99.90
16964;DHT22;8598;50.508;10.436;2023-07-22T12:48:09;23.00;99.90
16964;DHT22;8598;50.508;10.436;2023-07-22T12:50:36;22.80;99.90
16964;DHT22;8598;50.508;10.436;2023-07-22T12:53:02;22.90;99.90
16964;DHT22;8598;50.508;10.436;2023-07-22T12:55:30;23.10;99.90
16964;DHT22;8598;50.508;10.436;2023-07-22T12:57:57;22.80;99.90
16964;DHT22;8598;50.508;10.436;2023-07-22T13:00:24;23.00;99.90
16964;DHT22;8598;50.508;10.436;2023-07-22T13:02:51;23.40;99.90
16964;DHT22;8598;50.508;10.436;2023-07-22T13:05:18;23.60;99.90
16964;DHT22;8598;50.508;10.436;2023-07-22T13:07:44;23.70;99.90
16964;DHT22;8598;50.508;10.436;2023-07-22T13:10:11;23.90;99.90
16964;DHT22;8598;50.508;10.436;2023-07-22T13:12:43;23.90;99.90
16964;DHT22;8598;50.508;10.436;2023-07-22T13:15:10;23.40;99.90
16964;DHT22;8598;50.508;10.436;2023-07-22T13:17:37;23.40;99.90
16964;DHT22;8598;50.508;10.436;2023-07-22T13:20:04;23.10;99.90
16964;DHT22;8598;50.508;10.436;2023-07-22T13:22:35;23.40;99.90
16964;DHT22;8598;50.508;10.436;2023-07-22T13:25:02;23.40;99.90
16964;DHT22;8598;50.508;10.436;2023-07-22T13:27:29;23.80;99.90
16964;DHT22;8598;50.508;10.436;2023-07-22T13:29:57;24.00;99.90
16964;DHT22;8598;50.508;10.436;2023-07-22T13:32:24;24.10;99.90
16964;DHT22;8598;50.508;10.436;2023-07-22T13:34:51;24.20;99.90
16964;DHT22;8598;50.508;10.436;2023-07-22T13:37:18;24.40;99.90
16964;DHT22;8598;50.508;10.436;2023-07-22T13:39:45;24.50;99.90
16964;DHT22;8598;50.508;10.436;2023-07-22T13:42:11;24.80;99.90
16964;DHT22;8598;50.508;10.436;2023-07-22T13:44:38;24.70;99.90
16964;DHT22;8598;50.508;10.436;2023-07-22T13:47:06;23.80;99.90
16964;DHT22;8598;50.508;10.436;2023-07-22T13:49:33;24.00;99.90
16964;DHT22;8598;50.508;10.436;2023-07-22T13:51:59;23.80;99.90
16964;DHT22;8598;50.508;10.436;2023-07-22T13:54:26;23.50;99.90
16964;DHT22;8598;50.508;10.436;2023-07-22T13:56:53;23.20;99.90
16964;DHT22;8598;50.508;10.436;2023-07-22T13:59:19;22.90;99.90
16964;DHT22;8598;50.508;10.436;2023-07-22T14:01:47;22.80;99.90
16964;DHT22;8598;50.508;10.436;2023-07-22T14:04:15;22.40;99.90
16964;DHT22;8598;50.508;10.436;2023-07-22T14:06:41;22.50;99.90
16964;DHT22;8598;50.508;10.436;2023-07-22T14:09:08;22.40;99.90
16964;DHT22;8598;50.508;10.436;2023-07-22T14:11:35;22.60;99.90
16964;DHT22;8598;50.508;10.436;2023-07-22T14:14:02;22.70;99.90
16964;DHT22;8598;50.508;10.436;2023-07-22T14:16:28;23.20;99.90
16964;DHT22;8598;50.508;10.436;2023-07-22T14:18:55;23.10;99.90
16964;DHT22;8598;50.508;10.436;2023-07-22T14:21:23;23.00;99.90
16964;DHT22;8598;50.508;10.436;2023-07-22T14:23:50;23.10;99.90
16964;DHT22;8598;50.508;10.436;2023-07-22T14:26:17;23.00;99.90
16964;DHT22;8598;50.508;10.436;2023-07-22T14:28:44;23.00;99.90
16964;DHT22;8598;50.508;10.436;2023-07-22T14:31:10;23.00;99.90
16964;DHT22;8598;50.508;10.436;2023-07-22T14:33:37;23.20;99.90
16964;DHT22;8598;50.508;10.436;2023-07-22T14:36:04;23.30;99.90
16964;DHT22;8598;50.508;10.436;2023-07-22T14:38:32;23.30;99.90
16964;DHT22;8598;50.508;10.436;2023-07-22T14:40:59;23.40;99.90
16964;DHT22;8598;50.508;10.436;2023-07-22T14:43:25;23.60;99.90
16964;DHT22;8598;50.508;10.436;2023-07-22T14:45:53;23.90;99.90
16964;DHT22;8598;50.508;10.436;2023-07-22T14:48:20;23.70;99.90
16964;DHT22;8598;50.508;10.436;2023-07-22T14:50:47;23.30;99.90
16964;DHT22;8598;50.508;10.436;2023-07-22T14:53:13;23.20;99.90
16964;DHT22;8598;50.508;10.436;2023-07-22T14:55:41;23.20;99.90
16964;DHT22;8598;50.508;10.436;2023-07-22T14:58:08;23.00;99.90
16964;DHT22;8598;50.508;10.436;2023-07-22T15:00:35;23.10;99.90
16964;DHT22;8598;50.508;10.436;2023-07-22T15:03:02;23.10;99.90
16964;DHT22;8598;50.508;10.436;2023-07-22T15:05:28;23.00;99.90
16964;DHT22;8598;50.508;10.436;2023-07-22T15:07:55;23.00;99.90
16964;DHT22;8598;50.508;10.436;2023-07-22T15:10:22;22.70;99.90
16964;DHT22;8598;50.508;10.436;2023-07-22T15:12:50;22.60;99.90
16964;DHT22;8598;50.508;10.436;2023-07-22T15:15:16;22.60;99.90
16964;DHT22;8598;50.508;10.436;2023-07-22T15:17:44;22.50;99.90
16964;DHT22;8598;50.508;10.436;2023-07-22T15:20:11;22.40;99.90
16964;DHT22;8598;50.508;10.436;2023-07-22T15:22:38;22.50;99.90
16964;DHT22;8598;50.508;10.436;2023-07-22T15:25:05;22.70;99.90
16964;DHT22;8598;50.508;10.436;2023-07-22T15:27:32;22.90;99.90
16964;DHT22;8598;50.508;10.436;2023-07-22T15:30:00;23.20;99.90
16964;DHT22;8598;50.508;10.436;2023-07-22T15:32:26;23.20;99.90
16964;DHT22;8598;50.508;10.436;2023-07-22T15:34:53;23.20;99.90
16964;DHT22;8598;50.508;10.436;2023-07-22T15:37:20;23.10;99.90
16964;DHT22;8598;50.508;10.436;2023-07-22T15:39:46;23.20;99.90